CPA252 EGLL-VHHH
Flight info
| Callsign | CPA252 |
|---|---|
| Flight time | N/A |
| Altitude | 31000 |
| Route | DET L6 DVR UL9 KONAN UL607 KOK DCT MATUG DCT BOMBI DCT TENLO DCT DEXIT DCT BEGLA DCT DEGET/N0489F330 DCT UDROS UM859 KARDE UL851 TBN UM11 REBLO M11 MATAL T916 LEYLA N161 GASBI/K0911F330 N161 DIVNO/K0898F350 N161 SARIN/K0895S1070 A368 FKG W192 ESDEX W191 RUSAT/K0898S1130 W191 DNC W565 BIGUX B330 KWE W181 DUDIT A599 POU R473 SIERA |
| Aircraft | B77W/H-SDE1E2E3FGHIJ2J3J4J5M1RWXY/LB1D1 |
Departure
| Time | N/A |
|---|---|
| Airport | London Heathrow Airport (EGLL) |
Arrival
| Time | 2026-05-06 18:18 |
|---|---|
| Airport | Hong Kong International Airport (VHHH) |
| Time | Latitude | Longitude | Altitude | Speed | Heading |
|---|---|---|---|---|---|
| 2026-05-06 17:42 | 21.73198 | 113.68982 | 13313 ft | 399 kts | 119° |
| 2026-05-06 17:42 | 21.72309 | 113.71787 | 12952 ft | 394 kts | 101° |
| 2026-05-06 17:43 | 21.72236 | 113.74709 | 12455 ft | 391 kts | 83° |
| 2026-05-06 17:43 | 21.72987 | 113.77498 | 11933 ft | 389 kts | 65° |
| 2026-05-06 17:43 | 21.74415 | 113.79947 | 11424 ft | 386 kts | 47° |
| 2026-05-06 17:43 | 21.76306 | 113.81875 | 10871 ft | 362 kts | 40° |
| 2026-05-06 17:44 | 21.78147 | 113.83575 | 10465 ft | 337 kts | 40° |
| 2026-05-06 17:44 | 21.79852 | 113.85180 | 10124 ft | 315 kts | 41° |
| 2026-05-06 17:44 | 21.81434 | 113.86703 | 9826 ft | 300 kts | 41° |
| 2026-05-06 17:44 | 21.82983 | 113.88200 | 9525 ft | 295 kts | 38° |
| 2026-05-06 17:45 | 21.84754 | 113.89220 | 9197 ft | 288 kts | 12° |
| 2026-05-06 17:45 | 21.86721 | 113.89307 | 8930 ft | 282 kts | 349° |
| 2026-05-06 17:45 | 21.88576 | 113.88675 | 8659 ft | 280 kts | 334° |
| 2026-05-06 17:45 | 21.90356 | 113.87794 | 8374 ft | 283 kts | 333° |
| 2026-05-06 17:46 | 21.92112 | 113.86899 | 8086 ft | 283 kts | 333° |
| 2026-05-06 17:46 | 21.93912 | 113.85982 | 7783 ft | 281 kts | 333° |
| 2026-05-06 17:46 | 21.95680 | 113.85086 | 7502 ft | 280 kts | 333° |
| 2026-05-06 17:46 | 21.97434 | 113.84203 | 7225 ft | 278 kts | 333° |
| 2026-05-06 17:47 | 21.99188 | 113.83324 | 6939 ft | 277 kts | 333° |
| 2026-05-06 17:47 | 22.00911 | 113.82462 | 6668 ft | 277 kts | 333° |
| 2026-05-06 17:47 | 22.02680 | 113.81578 | 6381 ft | 276 kts | 333° |
| 2026-05-06 17:47 | 22.04424 | 113.80708 | 6095 ft | 276 kts | 334° |
| 2026-05-06 17:48 | 22.06163 | 113.79842 | 5791 ft | 276 kts | 334° |
| 2026-05-06 17:48 | 22.07880 | 113.78987 | 5502 ft | 274 kts | 334° |
| 2026-05-06 17:48 | 22.09599 | 113.78129 | 5227 ft | 272 kts | 334° |
| 2026-05-06 17:48 | 22.11313 | 113.77275 | 4940 ft | 270 kts | 334° |
| 2026-05-06 17:49 | 22.13013 | 113.76427 | 4715 ft | 268 kts | 334° |
| 2026-05-06 17:49 | 22.14690 | 113.75589 | 4457 ft | 265 kts | 334° |
| 2026-05-06 17:49 | 22.16361 | 113.74755 | 4177 ft | 263 kts | 335° |
| 2026-05-06 17:49 | 22.18010 | 113.73933 | 3943 ft | 261 kts | 335° |
| 2026-05-06 17:50 | 22.19666 | 113.73114 | 3674 ft | 258 kts | 338° |
| 2026-05-06 17:50 | 22.21395 | 113.72811 | 3399 ft | 251 kts | 9° |
| 2026-05-06 17:50 | 22.23003 | 113.73414 | 3197 ft | 242 kts | 32° |
| 2026-05-06 17:50 | 22.24388 | 113.74379 | 3111 ft | 232 kts | 35° |
| 2026-05-06 17:51 | 22.25715 | 113.75314 | 3009 ft | 222 kts | 36° |
| 2026-05-06 17:51 | 22.26807 | 113.76378 | 2849 ft | 204 kts | 66° |
| 2026-05-06 17:51 | 22.27273 | 113.77781 | 2476 ft | 200 kts | 75° |
| 2026-05-06 17:51 | 22.27709 | 113.79204 | 2224 ft | 197 kts | 73° |
| 2026-05-06 17:52 | 22.28145 | 113.80577 | 1978 ft | 191 kts | 73° |
| 2026-05-06 17:52 | 22.28563 | 113.81896 | 1764 ft | 182 kts | 73° |
| 2026-05-06 17:52 | 22.28959 | 113.83156 | 1603 ft | 177 kts | 73° |
| 2026-05-06 17:52 | 22.29352 | 113.84410 | 1366 ft | 176 kts | 71° |
| 2026-05-06 17:53 | 22.29758 | 113.85643 | 1247 ft | 181 kts | 75° |
| 2026-05-06 17:53 | 22.30201 | 113.87023 | 2187 ft | 198 kts | 71° |
| 2026-05-06 17:53 | 22.30653 | 113.88433 | 3289 ft | 210 kts | 72° |
| 2026-05-06 17:53 | 22.31137 | 113.89990 | 4314 ft | 226 kts | 72° |
| 2026-05-06 17:54 | 22.31669 | 113.91690 | 4858 ft | 255 kts | 71° |
| 2026-05-06 17:54 | 22.32222 | 113.93439 | 5007 ft | 237 kts | 72° |
| 2026-05-06 17:54 | 22.32765 | 113.95116 | 4973 ft | 236 kts | 72° |
| 2026-05-06 17:54 | 22.33376 | 113.96756 | 4976 ft | 234 kts | 59° |
| 2026-05-06 17:55 | 22.34478 | 113.97973 | 5012 ft | 228 kts | 40° |
| 2026-05-06 17:55 | 22.35700 | 113.99066 | 4998 ft | 227 kts | 41° |
| 2026-05-06 17:55 | 22.36908 | 114.00162 | 4997 ft | 226 kts | 41° |
| 2026-05-06 17:55 | 22.38103 | 114.01256 | 4996 ft | 225 kts | 41° |
| 2026-05-06 17:56 | 22.39292 | 114.02351 | 4997 ft | 225 kts | 41° |
| 2026-05-06 17:56 | 22.40476 | 114.03447 | 4997 ft | 223 kts | 41° |
| 2026-05-06 17:56 | 22.41651 | 114.04539 | 5002 ft | 224 kts | 41° |
| 2026-05-06 17:56 | 22.42836 | 114.05644 | 5002 ft | 225 kts | 41° |
| 2026-05-06 17:57 | 22.44019 | 114.06748 | 4998 ft | 225 kts | 41° |
| 2026-05-06 17:57 | 22.45205 | 114.07854 | 4998 ft | 225 kts | 41° |
| 2026-05-06 17:57 | 22.45977 | 114.08621 | 4993 ft | 222 kts | 50° |
| 2026-05-06 17:57 | 22.46749 | 114.10196 | 5022 ft | 254 kts | 70° |
| 2026-05-06 17:58 | 22.47407 | 114.11983 | 4942 ft | 255 kts | 69° |
| 2026-05-06 17:58 | 22.48073 | 114.13758 | 4989 ft | 256 kts | 69° |
| 2026-05-06 17:58 | 22.48741 | 114.15527 | 4996 ft | 258 kts | 69° |
| 2026-05-06 17:58 | 22.49280 | 114.17346 | 4969 ft | 252 kts | 87° |
| 2026-05-06 17:59 | 22.48994 | 114.19186 | 5004 ft | 250 kts | 117° |
| 2026-05-06 17:59 | 22.47971 | 114.20697 | 4990 ft | 250 kts | 138° |
| 2026-05-06 17:59 | 22.46675 | 114.21943 | 4988 ft | 249 kts | 140° |
| 2026-05-06 17:59 | 22.45370 | 114.23173 | 4978 ft | 249 kts | 140° |
| 2026-05-06 18:00 | 22.44066 | 114.24401 | 4980 ft | 248 kts | 140° |
| 2026-05-06 18:00 | 22.42766 | 114.25628 | 4988 ft | 248 kts | 140° |
| 2026-05-06 18:00 | 22.41466 | 114.26855 | 4986 ft | 248 kts | 140° |
| 2026-05-06 18:00 | 22.40172 | 114.28081 | 4993 ft | 248 kts | 140° |
| 2026-05-06 18:01 | 22.38880 | 114.29312 | 4988 ft | 248 kts | 140° |
| 2026-05-06 18:01 | 22.37583 | 114.30545 | 4983 ft | 248 kts | 140° |
| 2026-05-06 18:01 | 22.36294 | 114.31771 | 4983 ft | 247 kts | 140° |
| 2026-05-06 18:01 | 22.35002 | 114.33000 | 4986 ft | 247 kts | 140° |
| 2026-05-06 18:02 | 22.33709 | 114.34229 | 4989 ft | 248 kts | 140° |
| 2026-05-06 18:02 | 22.32265 | 114.35164 | 4974 ft | 242 kts | 167° |
| 2026-05-06 18:02 | 22.30595 | 114.35170 | 4992 ft | 244 kts | 196° |
| 2026-05-06 18:02 | 22.29078 | 114.34343 | 4992 ft | 248 kts | 218° |
| 2026-05-06 18:03 | 22.27807 | 114.33101 | 4991 ft | 250 kts | 222° |
| 2026-05-06 18:03 | 22.26541 | 114.31814 | 4979 ft | 248 kts | 222° |
| 2026-05-06 18:03 | 22.25297 | 114.30543 | 4979 ft | 245 kts | 222° |
| 2026-05-06 18:03 | 22.24070 | 114.29283 | 4974 ft | 243 kts | 222° |
| 2026-05-06 18:04 | 22.22850 | 114.28027 | 4988 ft | 244 kts | 222° |
| 2026-05-06 18:04 | 22.21612 | 114.26752 | 5003 ft | 247 kts | 223° |
| 2026-05-06 18:04 | 22.20370 | 114.25470 | 4994 ft | 248 kts | 223° |
| 2026-05-06 18:04 | 22.19121 | 114.24182 | 4987 ft | 248 kts | 223° |
| 2026-05-06 18:05 | 22.17876 | 114.22898 | 4987 ft | 247 kts | 223° |
| 2026-05-06 18:05 | 22.16642 | 114.21621 | 4990 ft | 245 kts | 224° |
| 2026-05-06 18:05 | 22.15627 | 114.20158 | 4994 ft | 244 kts | 237° |
| 2026-05-06 18:05 | 22.14763 | 114.18554 | 5008 ft | 250 kts | 239° |
| 2026-05-06 18:06 | 22.13901 | 114.16914 | 4996 ft | 250 kts | 239° |
| 2026-05-06 18:06 | 22.13053 | 114.15291 | 4984 ft | 247 kts | 239° |
| 2026-05-06 18:06 | 22.12218 | 114.13687 | 4983 ft | 244 kts | 239° |
| 2026-05-06 18:06 | 22.11390 | 114.12094 | 4990 ft | 245 kts | 239° |
| 2026-05-06 18:07 | 22.10551 | 114.10480 | 5014 ft | 248 kts | 239° |
| 2026-05-06 18:07 | 22.09705 | 114.08849 | 4992 ft | 250 kts | 239° |
| 2026-05-06 18:07 | 22.08867 | 114.07235 | 4994 ft | 250 kts | 239° |
| 2026-05-06 18:07 | 22.08021 | 114.05604 | 4993 ft | 248 kts | 239° |
| 2026-05-06 18:08 | 22.07179 | 114.03981 | 4983 ft | 247 kts | 239° |
| 2026-05-06 18:08 | 22.06370 | 114.02353 | 4979 ft | 246 kts | 241° |
| 2026-05-06 18:08 | 22.05595 | 114.00714 | 4983 ft | 245 kts | 241° |
| 2026-05-06 18:08 | 22.04816 | 113.99074 | 4982 ft | 247 kts | 241° |
| 2026-05-06 18:09 | 22.04026 | 113.97421 | 4986 ft | 249 kts | 241° |
| 2026-05-06 18:09 | 22.03232 | 113.95765 | 4979 ft | 249 kts | 242° |
| 2026-05-06 18:09 | 22.02767 | 113.94002 | 4979 ft | 248 kts | 269° |
| 2026-05-06 18:09 | 22.03164 | 113.92170 | 4993 ft | 256 kts | 294° |
| 2026-05-06 18:10 | 22.04018 | 113.90479 | 4998 ft | 259 kts | 297° |
| 2026-05-06 18:10 | 22.04908 | 113.88784 | 4983 ft | 259 kts | 297° |
| 2026-05-06 18:10 | 22.05788 | 113.87108 | 4979 ft | 256 kts | 297° |
| 2026-05-06 18:10 | 22.06657 | 113.85442 | 4976 ft | 254 kts | 297° |
| 2026-05-06 18:11 | 22.07519 | 113.83777 | 4990 ft | 256 kts | 297° |
| 2026-05-06 18:11 | 22.08388 | 113.82094 | 5001 ft | 258 kts | 297° |
| 2026-05-06 18:11 | 22.09259 | 113.80400 | 5003 ft | 258 kts | 297° |
| 2026-05-06 18:11 | 22.10132 | 113.78706 | 4993 ft | 257 kts | 298° |
| 2026-05-06 18:12 | 22.11299 | 113.77295 | 4984 ft | 255 kts | 327° |
| 2026-05-06 18:12 | 22.12904 | 113.76450 | 4936 ft | 261 kts | 335° |
| 2026-05-06 18:12 | 22.14587 | 113.75629 | 4541 ft | 269 kts | 335° |
| 2026-05-06 18:12 | 22.16301 | 113.74779 | 3824 ft | 272 kts | 335° |
| 2026-05-06 18:13 | 22.18017 | 113.73923 | 3106 ft | 270 kts | 335° |
| 2026-05-06 18:13 | 22.19694 | 113.73102 | 2489 ft | 264 kts | 340° |
| 2026-05-06 18:13 | 22.21434 | 113.72861 | 2084 ft | 245 kts | 11° |
| 2026-05-06 18:13 | 22.22972 | 113.73411 | 1845 ft | 223 kts | 31° |
| 2026-05-06 18:14 | 22.24233 | 113.74237 | 1687 ft | 204 kts | 36° |
| 2026-05-06 18:14 | 22.25435 | 113.75089 | 1677 ft | 203 kts | 37° |
| 2026-05-06 18:14 | 22.26393 | 113.76090 | 1630 ft | 187 kts | 54° |
| 2026-05-06 18:14 | 22.27070 | 113.77268 | 1586 ft | 179 kts | 70° |
| 2026-05-06 18:15 | 22.27472 | 113.78463 | 1570 ft | 164 kts | 73° |
| 2026-05-06 18:15 | 22.27843 | 113.79631 | 1611 ft | 165 kts | 73° |
| 2026-05-06 18:15 | 22.28204 | 113.80784 | 1589 ft | 161 kts | 73° |
| 2026-05-06 18:15 | 22.28566 | 113.81934 | 1583 ft | 162 kts | 73° |
| 2026-05-06 18:16 | 22.28933 | 113.83082 | 1339 ft | 157 kts | 72° |
| 2026-05-06 18:16 | 22.29283 | 113.84169 | 1142 ft | 150 kts | 73° |
| 2026-05-06 18:16 | 22.29616 | 113.85209 | 943 ft | 145 kts | 72° |
| 2026-05-06 18:16 | 22.29945 | 113.86232 | 782 ft | 143 kts | 73° |
| 2026-05-06 18:17 | 22.30260 | 113.87229 | 576 ft | 135 kts | 72° |
| 2026-05-06 18:17 | 22.30582 | 113.88215 | 414 ft | 145 kts | 72° |
| 2026-05-06 18:17 | 22.30920 | 113.89259 | 208 ft | 147 kts | 72° |
| 2026-05-06 18:17 | 22.31244 | 113.90260 | 40 ft | 135 kts | 71° |
| 2026-05-06 18:18 | 22.31516 | 113.91102 | 44 ft | 97 kts | 71° |
| 2026-05-06 18:18 | 22.31688 | 113.91635 | 42 ft | 53 kts | 71° |
| 2026-05-06 18:18 | 22.31788 | 113.91953 | 41 ft | 34 kts | 75° |
| 2026-05-06 18:18 | 22.31786 | 113.92174 | 42 ft | 25 kts | 101° |
| 2026-05-06 18:19 | 22.31756 | 113.92345 | 42 ft | 18 kts | 100° |
| 2026-05-06 18:19 | 22.31712 | 113.92421 | 42 ft | 12 kts | 152° |
| 2026-05-06 18:19 | 22.31628 | 113.92467 | 42 ft | 15 kts | 136° |
| 2026-05-06 18:19 | 22.31581 | 113.92564 | 42 ft | 15 kts | 115° |
| 2026-05-06 18:20 | 22.31536 | 113.92664 | 42 ft | 15 kts | 116° |
| 2026-05-06 18:20 | 22.31493 | 113.92760 | 42 ft | 13 kts | 111° |
| 2026-05-06 18:20 | 22.31509 | 113.92853 | 42 ft | 13 kts | 71° |
| 2026-05-06 18:20 | 22.31538 | 113.92945 | 42 ft | 13 kts | 70° |
| 2026-05-06 18:21 | 22.31570 | 113.93039 | 42 ft | 10 kts | 70° |
| 2026-05-06 18:21 | 22.31579 | 113.93093 | 42 ft | 7 kts | 101° |
| 2026-05-06 18:21 | 22.31538 | 113.93119 | 42 ft | 6 kts | 162° |
| 2026-05-06 18:21 | 22.31512 | 113.93128 | 42 ft | 3 kts | 162° |
| 2026-05-06 18:22 | 22.31499 | 113.93133 | 42 ft | 0 kts | 161° |